Portada
METAR-TAF:

METAR-TAF

Aeropuertos :

Aeropuerto Internacional de Bamako-Modibo Keïta

Bamako, Malí

latitud: 12-32N, longitud: 007-57W, altitud: 380 m

Observación

El informe se hizo hace 17 minutos, a las 19:30 UTC
Viento 1 kt del noroeste
Temperatura 33°C
Humedad 20%
Presión 1009 hPa
Visibilidad: 8000 m

METAR: GABS 181930Z 32001KT 8000 NSC 33/07 Q1009 NOSIG

Hora: 19:47 (19:47 UTC)

Pronóstico

El informe se hizo hace 2 horas y 47 minutos, a las 17:00 UTC
Pronóstico válido del 18 a las 18 UTC al 19 a las 24 UTC
Viento 6 kt del este
Visibilidad: 8000 m
Probabilidad 30% :
Temporalmente
del 19 a las 09 UTC al 19 a las 14 UTC
Visibilidad: 4000 m
Polvo extendido

TAF: GABS 181700Z 1818/1924 08006KT 8000 NSC PROB30 TEMPO 1909/1914 4000 DU

Observaciones y pronósticos meteorológicos de más de 4000 aeropuertos (mensajes METAR y TAF).

Los puntos amarillos y rojos representan las estaciones disponibles.

Ponga el ratón en el punto deseado para ver el nombre de la estación.

Haga clic para ver las observaciones y los pronósticos meteorológicos.

Para cambiar el mapa : haga clic en los botones verdes con una cruz de color negro para hacer un zoom, en el botón verde con un guión para alejar o en las flechas verdes para mapas adyacentes.


METAR-TAF: